Time;durP1;ratioP1;P1;durP2;ratioP2;P2;SDS_P1;SDS_P2;PMS_P1;PMS_P2;Temp;Humidity;BMP_temperature;BMP_pressure;BME280_temperature;BME280_humidity;BME280_pressure;Samples;Min_cycle;Max_cycle;Signal;HPM_P1;HPM_P2
2023/07/14 00:02:17;;;;;;;0.85;0.60;;;;;;;16.30;100.00;98654.19;15291418;19;20011;-65
2023/07/14 00:07:44;;;;;;;1.45;0.80;;;;;;;16.20;100.00;98655.56;15274659;19;20592;-57
2023/07/14 00:13:10;;;;;;;3.13;0.90;;;;;;;16.11;100.00;98654.81;15275683;19;20018;-58
2023/07/14 00:18:36;;;;;;;4.03;0.93;;;;;;;15.94;100.00;98649.59;15281145;19;20015;-58
2023/07/14 00:24:07;;;;;;;2.60;1.00;;;;;;;15.79;100.00;98641.44;15281780;19;20021;-60
2023/07/14 00:29:43;;;;;;;1.90;1.10;;;;;;;15.67;100.00;98645.69;15278481;19;20038;-57
2023/07/14 00:35:20;;;;;;;2.13;1.08;;;;;;;15.66;100.00;98646.72;15281188;19;20094;-56
2023/07/14 00:40:50;;;;;;;1.50;0.90;;;;;;;15.72;100.00;98640.53;15278769;19;20015;-58
2023/07/14 00:46:26;;;;;;;1.20;0.77;;;;;;;15.77;100.00;98643.50;15280183;19;20018;-59
2023/07/14 00:51:53;;;;;;;1.92;1.10;;;;;;;15.78;100.00;98628.06;15278394;19;20019;-58
2023/07/14 00:57:24;;;;;;;2.08;0.90;;;;;;;15.82;100.00;98627.50;15279174;19;20050;-59
2023/07/14 01:02:48;;;;;;;1.40;0.90;;;;;;;15.84;100.00;98621.88;15280026;19;20022;-58
2023/07/14 01:08:19;;;;;;;2.40;0.88;;;;;;;15.82;100.00;98619.34;15273766;19;20022;-59
2023/07/14 01:13:47;;;;;;;2.40;1.00;;;;;;;15.76;100.00;98609.22;15274572;19;20018;-59
2023/07/14 01:19:19;;;;;;;2.50;1.02;;;;;;;15.72;100.00;98597.91;15278447;19;20295;-59
2023/07/14 01:24:52;;;;;;;5.60;1.10;;;;;;;15.65;100.00;98602.44;15276663;19;20682;-57
2023/07/14 01:30:19;;;;;;;1.35;0.88;;;;;;;15.53;100.00;98595.78;15274633;19;20027;-58
2023/07/14 01:35:51;;;;;;;1.95;0.80;;;;;;;15.48;100.00;98592.78;15277871;19;20014;-59
2023/07/14 01:41:15;;;;;;;2.40;1.00;;;;;;;15.50;100.00;98594.31;15279050;19;20106;-59
2023/07/14 01:46:43;;;;;;;3.13;1.00;;;;;;;15.48;100.00;98604.50;15272968;19;20017;-59
2023/07/14 01:52:11;;;;;;;2.10;1.00;;;;;;;15.40;100.00;98593.75;15274621;19;20043;-59
2023/07/14 01:57:39;;;;;;;4.28;0.90;;;;;;;15.34;100.00;98595.34;15273596;19;20049;-59
2023/07/14 02:03:06;;;;;;;2.05;0.90;;;;;;;15.27;100.00;98602.53;15277170;19;20086;-61
2023/07/14 02:08:32;;;;;;;2.83;0.90;;;;;;;15.15;100.00;98604.03;15275516;19;20021;-60
2023/07/14 02:13:59;;;;;;;1.80;0.80;;;;;;;15.00;100.00;98620.31;15272452;19;20060;-55
2023/07/14 02:19:28;;;;;;;2.90;1.00;;;;;;;14.88;100.00;98622.63;15265151;19;20019;-57
2023/07/14 02:24:58;;;;;;;1.75;0.90;;;;;;;14.76;100.00;98628.47;15275170;19;20018;-55
2023/07/14 02:30:26;;;;;;;2.83;1.05;;;;;;;14.72;100.00;98631.75;15271447;19;20018;-60
2023/07/14 02:36:02;;;;;;;2.25;0.90;;;;;;;14.59;100.00;98640.47;15271989;19;20034;-59
2023/07/14 02:41:31;;;;;;;2.03;1.00;;;;;;;14.56;100.00;98635.41;15275458;19;20029;-58
2023/07/14 02:46:58;;;;;;;1.17;0.77;;;;;;;14.64;100.00;98641.63;15272663;19;20015;-60
2023/07/14 02:52:27;;;;;;;1.77;1.10;;;;;;;14.66;100.00;98618.91;15270620;19;20014;-64
2023/07/14 02:57:51;;;;;;;0.93;0.88;;;;;;;14.58;100.00;98627.94;15271693;19;20018;-59
2023/07/14 03:03:17;;;;;;;2.22;1.00;;;;;;;14.37;100.00;98624.03;15274898;19;20014;-59
2023/07/14 03:08:43;;;;;;;1.73;1.10;;;;;;;14.27;100.00;98613.44;15270059;19;20030;-60
2023/07/14 03:14:08;;;;;;;4.93;0.90;;;;;;;14.20;100.00;98614.34;15270399;19;20090;-59
2023/07/14 03:19:33;;;;;;;1.23;0.82;;;;;;;14.11;100.00;98610.84;15278362;19;20498;-60
2023/07/14 03:25:02;;;;;;;2.50;0.90;;;;;;;14.12;100.00;98613.38;15284915;19;20022;-56
2023/07/14 03:30:26;;;;;;;2.20;1.10;;;;;;;14.11;100.00;98608.97;15281293;19;20010;-61
2023/07/14 03:35:51;;;;;;;2.13;0.90;;;;;;;14.12;100.00;98617.94;15279858;19;20426;-60
2023/07/14 03:41:19;;;;;;;1.95;0.90;;;;;;;14.10;100.00;98620.84;15287322;19;20018;-58
2023/07/14 03:46:45;;;;;;;2.53;0.95;;;;;;;14.07;100.00;98615.75;15282632;19;20465;-62
2023/07/14 03:52:09;;;;;;;2.05;1.08;;;;;;;14.06;100.00;98618.66;15281321;19;20007;-62
2023/07/14 03:57:37;;;;;;;2.47;0.85;;;;;;;14.06;100.00;98619.50;15281488;19;20020;-61
2023/07/14 04:03:20;;;;;;;3.38;1.17;;;;;;;14.05;100.00;98612.41;15285490;19;20018;-62
2023/07/14 04:08:46;;;;;;;3.05;0.98;;;;;;;14.03;100.00;98604.44;15281413;19;20033;-62
2023/07/14 04:14:17;;;;;;;4.38;1.00;;;;;;;14.03;100.00;98612.56;15280675;19;20014;-63
2023/07/14 04:19:41;;;;;;;3.08;0.98;;;;;;;14.06;100.00;98616.78;15280087;19;20018;-61
2023/07/14 04:25:07;;;;;;;2.28;1.08;;;;;;;14.07;100.00;98615.75;15275922;19;20022;-62
2023/07/14 04:30:35;;;;;;;2.25;1.10;;;;;;;14.11;100.00;98622.53;15277988;19;20033;-62
2023/07/14 04:36:02;;;;;;;1.98;0.90;;;;;;;14.11;100.00;98622.53;15278114;19;20037;-62
2023/07/14 04:41:26;;;;;;;2.35;0.90;;;;;;;14.18;100.00;98628.91;15283026;19;20710;-63
2023/07/14 04:46:55;;;;;;;2.10;1.00;;;;;;;14.25;100.00;98620.06;15279612;19;20074;-63
2023/07/14 04:52:19;;;;;;;2.50;1.10;;;;;;;14.35;100.00;98623.38;15281694;19;20833;-62
2023/07/14 04:57:44;;;;;;;2.20;1.00;;;;;;;14.42;100.00;98624.31;15273380;19;20014;-62
2023/07/14 05:03:12;;;;;;;1.27;0.90;;;;;;;14.55;100.00;98631.00;15281671;19;20024;-63
2023/07/14 05:08:37;;;;;;;2.55;1.05;;;;;;;14.66;100.00;98627.03;15277884;19;20014;-63
2023/07/14 05:14:04;;;;;;;1.38;0.90;;;;;;;14.79;100.00;98614.56;15277241;19;20029;-63
2023/07/14 05:19:31;;;;;;;1.05;0.80;;;;;;;14.92;100.00;98608.53;15278083;19;20035;-62
2023/07/14 05:24:55;;;;;;;1.15;0.90;;;;;;;15.07;100.00;98611.25;15277413;19;20018;-63
2023/07/14 05:30:23;;;;;;;2.97;0.90;;;;;;;15.19;100.00;98605.34;15272628;19;20655;-63
2023/07/14 05:35:51;;;;;;;4.40;1.20;;;;;;;15.35;100.00;98601.59;15272828;19;20022;-63
2023/07/14 05:41:16;;;;;;;2.35;1.10;;;;;;;15.45;100.00;98606.75;15210454;19;20042;-63
2023/07/14 05:46:41;;;;;;;2.00;1.00;;;;;;;15.59;100.00;98596.91;15276162;19;20016;-64
2023/07/14 05:52:09;;;;;;;2.10;1.00;;;;;;;15.74;100.00;98588.72;15277907;19;20010;-62
2023/07/14 05:57:36;;;;;;;2.63;1.02;;;;;;;15.90;100.00;98595.84;15271902;19;20021;-63
2023/07/14 06:03:00;;;;;;;1.83;0.90;;;;;;;16.06;100.00;98595.63;15273028;19;20025;-62
2023/07/14 06:08:27;;;;;;;5.35;1.30;;;;;;;16.24;100.00;98594.31;15274058;19;20010;-78
2023/07/14 06:13:52;;;;;;;1.42;1.00;;;;;;;16.42;100.00;98591.16;15281663;19;20010;-77
2023/07/14 06:19:17;;;;;;;3.25;1.10;;;;;;;16.57;100.00;98589.19;15281740;19;20018;-77
2023/07/14 06:24:48;;;;;;;2.00;0.98;;;;;;;16.73;100.00;98590.78;15282063;19;20476;-78
2023/07/14 06:30:22;;;;;;;2.17;1.10;;;;;;;16.91;100.00;98590.28;15344540;19;20015;-77
2023/07/14 06:35:49;;;;;;;2.35;0.90;;;;;;;17.09;100.00;98583.56;15288372;19;20086;-77
2023/07/14 06:41:16;;;;;;;4.47;1.20;;;;;;;17.28;100.00;98584.72;15286426;19;20417;-78
2023/07/14 06:46:41;;;;;;;2.47;1.10;;;;;;;17.48;100.00;98590.25;15280324;19;20015;-78
2023/07/14 06:52:06;;;;;;;3.63;0.90;;;;;;;17.66;100.00;98586.97;15275742;19;20752;-78
2023/07/14 06:57:34;;;;;;;1.08;0.70;;;;;;;17.89;100.00;98588.53;15274683;19;20006;-78
2023/07/14 07:02:58;;;;;;;1.92;0.85;;;;;;;18.06;100.00;98586.31;15272033;19;20369;-79
2023/07/14 07:08:32;;;;;;;1.83;0.85;;;;;;;18.25;100.00;98578.38;15267225;19;20015;-78
2023/07/14 07:13:59;;;;;;;1.67;0.75;;;;;;;18.45;100.00;98564.78;15270598;19;20018;-78
2023/07/14 07:19:25;;;;;;;2.85;0.70;;;;;;;18.67;100.00;98564.56;15271812;19;20014;-78
2023/07/14 07:24:49;;;;;;;3.33;0.93;;;;;;;18.87;100.00;98565.38;15269238;19;20031;-79
2023/07/14 07:30:18;;;;;;;2.45;1.00;;;;;;;19.06;100.00;98560.97;15273962;19;20809;-78
2023/07/14 07:35:44;;;;;;;3.47;0.90;;;;;;;19.28;100.00;98559.88;15267494;19;20031;-78
2023/07/14 07:41:09;;;;;;;3.25;1.00;;;;;;;19.43;100.00;98556.88;15270688;19;20074;-79
2023/07/14 07:46:37;;;;;;;3.50;0.90;;;;;;;19.62;100.00;98553.22;15268298;19;20018;-79
2023/07/14 07:52:03;;;;;;;1.13;0.80;;;;;;;19.80;100.00;98557.16;15272003;19;20854;-79
2023/07/14 07:57:28;;;;;;;0.95;0.60;;;;;;;19.99;100.00;98553.50;15273515;19;20035;-81
2023/07/14 08:02:56;;;;;;;2.88;0.80;;;;;;;20.19;100.00;98549.78;15277698;19;20014;-79
2023/07/14 08:08:20;;;;;;;1.75;0.70;;;;;;;20.32;100.00;98541.50;15297760;19;20514;-79
2023/07/14 08:13:46;;;;;;;1.55;0.70;;;;;;;20.46;100.00;98533.19;15282935;19;20010;-82
2023/07/14 08:19:13;;;;;;;2.28;0.73;;;;;;;20.66;100.00;98526.69;15285396;19;20018;-78
2023/07/14 08:24:38;;;;;;;2.13;0.70;;;;;;;20.90;100.00;98530.50;15282404;19;20018;-78
2023/07/14 08:30:05;;;;;;;1.40;0.60;;;;;;;21.08;93.72;98526.97;15285115;19;20015;-78
2023/07/14 08:35:34;;;;;;;1.48;0.65;;;;;;;21.11;93.45;98528.41;15281592;19;20499;-78
2023/07/14 08:41:09;;;;;;;2.55;0.90;;;;;;;21.32;87.98;98518.88;15287978;19;20889;-79
2023/07/14 08:46:41;;;;;;;2.38;0.85;;;;;;;21.48;88.24;98518.25;15272788;19;20018;-78
2023/07/14 08:52:18;;;;;;;1.52;0.70;;;;;;;21.79;87.07;98513.69;15281812;19;20517;-77
2023/07/14 08:57:52;;;;;;;1.23;0.63;;;;;;;21.92;84.06;98500.84;15276171;19;20002;-77
2023/07/14 09:03:21;;;;;;;1.63;0.70;;;;;;;22.16;81.95;98507.22;15279769;19;20021;-77
2023/07/14 09:08:49;;;;;;;1.75;0.80;;;;;;;22.43;76.78;98504.91;15277663;19;20015;-77
2023/07/14 09:14:35;;;;;;;0.90;0.70;;;;;;;22.73;67.60;98503.13;15275213;19;20025;-78
2023/07/14 09:20:30;;;;;;;2.30;0.88;;;;;;;22.88;65.83;98489.78;15282964;19;20050;-77
2023/07/14 09:26:09;;;;;;;1.25;0.50;;;;;;;23.37;66.32;98478.47;15279668;19;20024;-77
2023/07/14 09:31:48;;;;;;;1.35;0.77;;;;;;;23.67;63.32;98488.41;15281345;19;20014;-77
2023/07/14 09:37:20;;;;;;;1.23;0.70;;;;;;;23.64;59.29;98472.41;15275416;19;20007;-77
2023/07/14 09:42:51;;;;;;;3.97;0.73;;;;;;;23.75;59.40;98461.59;15282033;19;20018;-79
2023/07/14 09:48:19;;;;;;;3.47;0.80;;;;;;;23.72;56.55;98467.56;15269975;19;20006;-79
2023/07/14 09:53:46;;;;;;;1.15;0.60;;;;;;;23.63;59.75;98467.97;15279868;19;20022;-78
2023/07/14 09:59:21;;;;;;;1.88;0.57;;;;;;;23.48;57.59;98459.41;15275233;19;20018;-78
2023/07/14 10:04:48;;;;;;;1.45;0.60;;;;;;;23.31;58.49;98457.47;15276255;19;20022;-76
2023/07/14 10:10:25;;;;;;;0.80;0.60;;;;;;;23.44;59.66;98445.34;15275926;19;20018;-77
2023/07/14 10:16:07;;;;;;;1.48;0.70;;;;;;;23.59;56.55;98436.53;15268435;19;20045;-77
2023/07/14 10:21:35;;;;;;;1.05;0.60;;;;;;;23.76;56.54;98433.81;15272972;19;20486;-77
2023/07/14 10:27:04;;;;;;;1.35;0.60;;;;;;;24.00;58.31;98419.97;15272472;19;20028;-77
2023/07/14 10:32:34;;;;;;;1.35;0.70;;;;;;;24.39;54.23;98413.72;15277545;19;20021;-77
2023/07/14 10:38:02;;;;;;;;;;;;;;;24.55;52.13;98421.09;15278548;19;20847;-77
2023/07/14 10:43:32;;;;;;;1.85;0.63;;;;;;;24.70;55.42;98411.44;15337059;19;19911;-79
2023/07/14 10:49:04;;;;;;;;;;;;;;;24.87;54.56;98414.97;15311345;19;20010;-76
2023/07/14 10:54:45;;;;;;;1.38;0.63;;;;;;;24.86;52.23;98404.19;15271430;19;19915;-76
2023/07/14 11:00:28;;;;;;;2.70;0.80;;;;;;;24.95;53.37;98401.84;15277919;19;20010;-76
2023/07/14 11:06:00;;;;;;;2.35;0.60;;;;;;;25.07;51.04;98391.53;15270645;19;20014;-77
2023/07/14 11:11:39;;;;;;;2.13;0.68;;;;;;;25.32;52.22;98385.47;15276370;19;20025;-77
2023/07/14 11:17:14;;;;;;;1.90;0.80;;;;;;;25.54;51.06;98388.22;15271324;19;20013;-77
2023/07/14 11:23:00;;;;;;;2.03;0.80;;;;;;;25.74;51.41;98385.91;15272444;19;20689;-77
2023/07/14 11:28:38;;;;;;;2.05;0.70;;;;;;;25.87;50.27;98368.94;15274710;19;20469;-77
2023/07/14 11:34:26;;;;;;;1.63;0.70;;;;;;;25.89;49.75;98366.72;15270985;19;20045;-76
2023/07/14 11:39:57;;;;;;;1.85;0.70;;;;;;;26.02;50.22;98353.56;15281718;19;20019;-76
2023/07/14 11:45:27;;;;;;;0.98;0.63;;;;;;;26.27;50.30;98350.22;15282332;19;20010;-77
2023/07/14 11:51:06;;;;;;;1.40;0.70;;;;;;;26.54;49.19;98346.47;15285697;19;20457;-77
2023/07/14 11:56:35;;;;;;;2.07;0.70;;;;;;;26.58;47.28;98340.16;15275699;19;20400;-77
2023/07/14 12:02:22;;;;;;;2.67;0.63;;;;;;;26.61;46.86;98330.50;15280751;19;20021;-76
2023/07/14 12:08:20;;;;;;;1.90;0.68;;;;;;;26.44;45.55;98328.75;15280365;19;20010;-77
2023/07/14 12:13:53;;;;;;;0.93;0.57;;;;;;;26.65;44.42;98328.84;15280392;19;20090;-77
2023/07/14 12:19:32;;;;;;;1.35;0.65;;;;;;;26.48;44.45;98333.75;15282218;19;20013;-77
2023/07/14 12:24:59;;;;;;;1.08;0.70;;;;;;;26.73;45.04;98319.22;15281012;19;20402;-77
2023/07/14 12:30:31;;;;;;;4.20;0.90;;;;;;;27.17;45.96;98302.22;15279645;19;20073;-77
2023/07/14 12:35:57;;;;;;;3.10;0.70;;;;;;;27.41;43.59;98295.38;15278002;19;20021;-78
2023/07/14 12:41:21;;;;;;;0.90;0.57;;;;;;;27.33;44.41;98289.28;15177102;19;2004109;-78
2023/07/14 12:46:50;;;;;;;1.13;0.63;;;;;;;27.42;43.31;98285.97;15277424;19;20356;-77
2023/07/14 12:52:16;;;;;;;4.25;0.70;;;;;;;27.80;44.03;98275.50;15282723;19;20043;-77
2023/07/14 12:57:41;;;;;;;1.25;0.73;;;;;;;27.76;42.67;98274.38;15276119;19;20445;-77
2023/07/14 13:03:11;;;;;;;0.93;0.70;;;;;;;27.78;43.57;98261.09;15278788;19;20014;-77
2023/07/14 13:08:36;;;;;;;1.85;0.77;;;;;;;27.88;42.55;98255.53;15281289;19;20018;-77
2023/07/14 13:14:06;;;;;;;2.88;0.77;;;;;;;27.67;42.31;98254.72;15279828;19;20019;-77
2023/07/14 13:19:38;;;;;;;2.75;0.60;;;;;;;28.03;41.60;98248.31;15282127;19;20014;-78
2023/07/14 13:25:10;;;;;;;2.17;0.88;;;;;;;28.49;42.48;98222.41;15280503;19;20015;-76
2023/07/14 13:30:36;;;;;;;1.40;0.60;;;;;;;28.48;40.75;98226.28;15281413;19;20027;-77
2023/07/14 13:36:10;;;;;;;1.95;0.88;;;;;;;28.42;38.97;98228.25;15273130;19;20030;-78
2023/07/14 13:41:37;;;;;;;1.33;0.70;;;;;;;28.87;39.18;98225.56;15282627;19;20018;-78
2023/07/14 13:47:02;;;;;;;4.85;0.80;;;;;;;29.18;39.31;98231.75;15271095;19;20347;-76
2023/07/14 13:52:33;;;;;;;3.15;0.80;;;;;;;29.40;37.57;98215.81;15277963;19;20916;-78
2023/07/14 13:57:59;;;;;;;3.30;0.80;;;;;;;29.79;38.15;98218.50;15270795;19;20801;-76
2023/07/14 14:03:28;;;;;;;2.17;0.85;;;;;;;29.89;37.22;98208.38;15274374;19;20687;-77
2023/07/14 14:09:02;;;;;;;2.10;0.70;;;;;;;30.30;36.06;98202.38;15273113;19;20121;-77
2023/07/14 14:14:27;;;;;;;1.25;0.65;;;;;;;29.50;35.96;98202.66;15271571;19;20042;-76
2023/07/14 14:19:51;;;;;;;3.90;0.88;;;;;;;30.07;37.70;98199.31;15273970;19;20018;-76
2023/07/14 14:25:22;;;;;;;1.17;0.70;;;;;;;30.22;36.10;98184.44;15271743;19;20002;-77
2023/07/14 14:30:50;;;;;;;2.20;0.68;;;;;;;30.29;37.00;98172.94;15274503;19;20776;-74
2023/07/14 14:36:16;;;;;;;1.80;0.70;;;;;;;30.72;35.42;98163.75;15266663;19;20511;-74
2023/07/14 14:41:43;;;;;;;0.60;0.57;;;;;;;31.25;35.61;98159.91;15274352;19;20572;-74
2023/07/14 14:47:11;;;;;;;1.50;0.70;;;;;;;31.50;34.58;98153.06;15272002;19;20021;-75
2023/07/14 14:52:36;;;;;;;1.35;0.70;;;;;;;31.32;34.55;98149.22;15273421;19;20014;-75
2023/07/14 14:58:04;;;;;;;2.15;0.55;;;;;;;31.09;33.99;98141.78;15269981;19;20801;-75
2023/07/14 15:03:30;;;;;;;1.83;0.70;;;;;;;30.99;35.13;98132.47;15275272;19;20733;-77
2023/07/14 15:08:55;;;;;;;0.80;0.70;;;;;;;31.32;34.52;98124.16;15322563;19;20026;-77
2023/07/14 15:14:33;;;;;;;2.33;0.60;;;;;;;31.60;34.70;98117.81;15297220;19;20089;-75
2023/07/14 15:19:58;;;;;;;2.10;0.70;;;;;;;31.99;34.63;98104.53;15285093;19;20010;-75
2023/07/14 15:25:23;;;;;;;1.42;0.80;;;;;;;32.27;34.17;98089.47;15283671;19;20025;-74
2023/07/14 15:30:50;;;;;;;1.48;0.80;;;;;;;32.60;33.45;98077.25;15285901;19;20298;-74
2023/07/14 15:36:21;;;;;;;1.80;0.80;;;;;;;32.41;34.13;98057.91;15281402;19;20011;-75
2023/07/14 15:41:46;;;;;;;;;;;;;;;32.55;33.42;98058.69;15283336;19;20161;-75
2023/07/14 15:47:21;;;;;;;1.27;0.70;;;;;;;33.29;33.65;98064.13;15277817;19;19923;-74
2023/07/14 15:52:49;;;;;;;1.33;0.77;;;;;;;33.51;32.01;98049.31;15285407;19;20007;-75
2023/07/14 15:58:13;;;;;;;4.97;0.75;;;;;;;33.88;32.81;98047.13;15278273;19;20006;-75
2023/07/14 16:03:41;;;;;;;0.75;0.60;;;;;;;34.23;30.82;98044.41;15284192;19;20028;-75
2023/07/14 16:09:06;;;;;;;2.17;0.60;;;;;;;34.64;31.91;98041.47;15280610;19;20400;-76
2023/07/14 16:14:31;;;;;;;1.83;0.68;;;;;;;34.57;31.16;98033.59;15277194;19;20015;-76
2023/07/14 16:19:59;;;;;;;5.75;0.70;;;;;;;34.70;30.46;98029.78;15277262;19;20029;-75
2023/07/14 16:25:24;;;;;;;2.33;0.75;;;;;;;34.56;31.05;98023.53;15277246;19;20090;-75
2023/07/14 16:30:49;;;;;;;1.58;0.77;;;;;;;33.85;31.41;98030.19;15282290;19;20015;-75
2023/07/14 16:36:23;;;;;;;1.05;0.60;;;;;;;32.84;30.33;98025.94;15276691;19;20040;-76
2023/07/14 16:41:48;;;;;;;1.77;0.80;;;;;;;32.97;32.14;98024.22;15283163;19;20018;-75
2023/07/14 16:47:14;;;;;;;1.13;0.70;;;;;;;33.18;31.14;98021.69;15272000;19;20026;-75
2023/07/14 16:52:41;;;;;;;3.72;0.75;;;;;;;33.43;31.68;98009.03;15281857;19;20476;-75
2023/07/14 16:58:06;;;;;;;2.70;0.77;;;;;;;33.11;31.17;97999.81;15276758;19;20007;-75
2023/07/14 17:03:34;;;;;;;3.38;0.80;;;;;;;32.88;31.95;98001.84;15279108;19;20018;-74
2023/07/14 17:09:08;;;;;;;2.42;0.90;;;;;;;32.52;31.28;97997.16;15277328;19;20021;-75
2023/07/14 17:14:35;;;;;;;5.32;0.80;;;;;;;32.46;31.17;97999.25;15276674;19;20021;-75
2023/07/14 17:19:59;;;;;;;1.38;0.80;;;;;;;32.48;31.63;97980.25;15271476;19;20016;-75
2023/07/14 17:25:28;;;;;;;4.43;0.80;;;;;;;32.42;32.12;97981.50;15273507;19;20018;-74
2023/07/14 17:30:55;;;;;;;2.30;0.77;;;;;;;32.39;32.33;97982.16;15279972;19;20687;-74
2023/07/14 17:36:21;;;;;;;1.73;0.70;;;;;;;32.23;32.01;97990.84;15270368;19;20750;-75
2023/07/14 17:41:49;;;;;;;2.55;0.80;;;;;;;32.28;32.00;97982.38;15277060;19;20374;-75
2023/07/14 17:47:14;;;;;;;1.83;0.70;;;;;;;32.27;32.10;97983.53;15267793;19;20030;-74
2023/07/14 17:52:38;;;;;;;2.17;0.90;;;;;;;32.23;32.64;97979.72;15270944;19;20017;-75
2023/07/14 17:58:13;;;;;;;2.47;0.70;;;;;;;32.13;32.75;97985.53;15270785;19;20366;-75
2023/07/14 18:03:40;;;;;;;1.63;0.70;;;;;;;31.99;32.71;97979.16;15274437;19;20011;-75
2023/07/14 18:09:11;;;;;;;1.60;0.60;;;;;;;31.66;33.28;97975.38;15268079;19;20014;-74
2023/07/14 18:14:38;;;;;;;1.10;0.70;;;;;;;31.41;34.12;97976.75;15268693;19;20007;-77
2023/07/14 18:20:03;;;;;;;1.45;0.90;;;;;;;31.46;34.20;97978.63;15268068;19;20006;-75
2023/07/14 18:25:30;;;;;;;1.52;0.70;;;;;;;31.41;34.09;97973.13;15268985;19;20017;-75
2023/07/14 18:30:57;;;;;;;3.60;0.80;;;;;;;31.13;34.39;97971.19;15274106;19;20014;-78
2023/07/14 18:36:24;;;;;;;0.90;0.70;;;;;;;30.89;35.37;97972.16;15270514;19;20044;-77
2023/07/14 18:41:49;;;;;;;1.23;0.63;;;;;;;30.67;35.43;97958.13;15276535;19;20067;-77
2023/07/14 18:47:17;;;;;;;1.23;0.70;;;;;;;30.42;35.95;97969.31;15269008;19;20022;-76
2023/07/14 18:52:42;;;;;;;1.63;0.80;;;;;;;30.09;35.77;97971.25;15273611;19;20031;-77
2023/07/14 18:58:15;;;;;;;4.82;0.70;;;;;;;29.71;36.75;97972.03;15267405;19;20014;-76
2023/07/14 19:03:46;;;;;;;2.80;0.63;;;;;;;29.32;37.76;97971.09;15269153;19;20014;-74
2023/07/14 19:09:17;;;;;;;2.88;0.85;;;;;;;28.91;38.37;97972.38;15274453;19;20018;-75
2023/07/14 19:14:41;;;;;;;1.83;0.85;;;;;;;28.48;39.33;97961.13;15249409;19;20014;-74
2023/07/14 19:20:11;;;;;;;4.38;0.82;;;;;;;27.99;39.33;97974.75;15270768;19;20371;-75
2023/07/14 19:25:38;;;;;;;1.38;0.77;;;;;;;27.52;40.03;97982.47;15289594;19;20025;-76
2023/07/14 19:31:23;;;;;;;1.45;1.00;;;;;;;27.10;40.53;97980.13;15292553;19;20036;-74
2023/07/14 19:36:50;;;;;;;1.70;0.85;;;;;;;26.67;40.60;97977.69;15263729;19;20023;-74
2023/07/14 19:42:18;;;;;;;1.95;0.80;;;;;;;26.30;41.36;97979.63;15271942;19;20488;-74
2023/07/14 19:47:44;;;;;;;2.88;0.90;;;;;;;25.96;41.94;97985.63;15267918;19;20086;-74
2023/07/14 19:53:17;;;;;;;2.10;0.80;;;;;;;25.68;42.44;97987.78;15265312;19;20022;-74
2023/07/14 19:58:42;;;;;;;0.77;0.70;;;;;;;25.37;42.79;97990.34;15265559;19;20030;-75
2023/07/14 20:04:08;;;;;;;2.95;0.80;;;;;;;25.09;43.65;97978.66;15281105;19;20018;-75
2023/07/14 20:09:43;;;;;;;5.53;1.00;;;;;;;24.86;44.02;97969.72;15279344;19;20018;-74
2023/07/14 20:15:13;;;;;;;0.80;0.55;;;;;;;24.69;44.38;97969.03;14764637;19;10001183;-75
2023/07/14 20:20:41;;;;;;;1.85;0.80;;;;;;;24.47;44.46;97975.47;15275563;19;20043;-73
2023/07/14 20:26:16;;;;;;;1.90;0.80;;;;;;;24.24;45.49;97962.88;15280174;19;20058;-73
2023/07/14 20:31:42;;;;;;;1.75;0.85;;;;;;;24.04;45.89;97953.34;15281155;19;20893;-74
2023/07/14 20:37:15;;;;;;;1.90;0.90;;;;;;;23.86;47.66;97960.00;15274866;19;20093;-74
2023/07/14 20:42:42;;;;;;;1.27;0.85;;;;;;;23.68;47.45;97962.03;15278886;19;20029;-73
2023/07/14 20:48:11;;;;;;;1.52;0.90;;;;;;;23.54;48.14;97956.09;15276475;19;20022;-74
2023/07/14 20:53:44;;;;;;;2.88;0.98;;;;;;;23.45;48.02;97954.09;15277000;19;20020;-74
2023/07/14 20:59:25;;;;;;;2.70;1.00;;;;;;;23.29;49.25;97958.53;15276369;19;20049;-74
2023/07/14 21:04:56;;;;;;;2.83;0.95;;;;;;;23.12;49.16;97962.16;15275379;19;20014;-73
2023/07/14 21:10:27;;;;;;;1.80;1.00;;;;;;;23.02;49.67;97959.28;15273548;19;20784;-74
2023/07/14 21:15:57;;;;;;;1.67;0.90;;;;;;;22.86;50.48;97955.50;15275613;19;20692;-74
2023/07/14 21:21:30;;;;;;;1.50;0.85;;;;;;;22.72;50.29;97961.34;15278206;19;20018;-74
2023/07/14 21:26:55;;;;;;;1.65;0.98;;;;;;;22.61;51.10;97962.28;15272483;19;20021;-74
2023/07/14 21:32:40;;;;;;;2.10;1.00;;;;;;;22.52;51.63;97959.09;15281511;19;20652;-74
2023/07/14 21:38:11;;;;;;;3.72;0.98;;;;;;;22.43;51.98;97957.88;15274859;19;20025;-74
2023/07/14 21:43:41;;;;;;;1.35;0.98;;;;;;;22.37;51.35;97954.19;15274065;19;20022;-72
2023/07/14 21:49:13;;;;;;;2.35;0.90;;;;;;;22.25;53.27;97936.97;15274666;19;20021;-73
2023/07/14 21:54:39;;;;;;;2.63;0.90;;;;;;;22.15;53.04;97943.97;15273595;19;20019;-73
2023/07/14 22:00:05;;;;;;;2.65;1.00;;;;;;;22.00;54.12;97927.22;15270619;19;20408;-73
2023/07/14 22:05:32;;;;;;;1.70;0.90;;;;;;;21.95;53.84;97924.38;15274989;19;20044;-73
2023/07/14 22:10:59;;;;;;;1.17;0.90;;;;;;;21.86;54.43;97927.53;15265728;19;20018;-74
2023/07/14 22:16:27;;;;;;;2.70;0.90;;;;;;;21.79;54.95;97926.88;15268338;19;20040;-74
2023/07/14 22:21:55;;;;;;;2.28;0.88;;;;;;;21.69;55.67;97918.47;15271965;19;20018;-74
2023/07/14 22:27:21;;;;;;;1.00;0.80;;;;;;;21.58;56.06;97900.97;15267665;19;20016;-74
2023/07/14 22:32:48;;;;;;;1.40;1.00;;;;;;;21.53;56.12;97904.44;15274639;19;20014;-74
2023/07/14 22:38:18;;;;;;;3.88;1.10;;;;;;;21.48;56.65;97909.81;15271083;19;20018;-74
2023/07/14 22:43:43;;;;;;;1.70;0.82;;;;;;;21.45;57.35;97924.03;15268791;19;20102;-74
2023/07/14 22:49:08;;;;;;;1.30;1.00;;;;;;;21.42;57.33;97926.41;15272785;19;20010;-74
2023/07/14 22:54:36;;;;;;;2.03;1.08;;;;;;;21.37;57.43;97930.72;15270132;19;20374;-74
2023/07/14 23:00:00;;;;;;;1.75;0.90;;;;;;;21.36;57.91;97934.53;15270653;19;20027;-74
2023/07/14 23:05:25;;;;;;;1.63;0.95;;;;;;;21.32;58.58;97908.69;15270497;19;20019;-75
2023/07/14 23:10:57;;;;;;;2.22;1.02;;;;;;;21.21;59.74;97913.16;15269690;19;20029;-75
2023/07/14 23:16:23;;;;;;;2.67;0.88;;;;;;;21.07;60.77;97909.00;15271256;19;20010;-74
2023/07/14 23:21:47;;;;;;;1.58;0.80;;;;;;;20.99;60.64;97902.00;15269650;19;20010;-74
2023/07/14 23:27:15;;;;;;;2.03;0.98;;;;;;;20.88;61.88;97900.94;15268455;19;20010;-73
2023/07/14 23:32:39;;;;;;;2.03;1.02;;;;;;;20.81;61.56;97905.72;15272559;19;20034;-74
2023/07/14 23:38:04;;;;;;;3.50;1.05;;;;;;;20.75;61.73;97904.78;15289235;19;20010;-75
2023/07/14 23:43:31;;;;;;;3.80;1.00;;;;;;;20.72;61.69;97898.94;15312854;19;20021;-75
2023/07/14 23:48:57;;;;;;;1.67;0.80;;;;;;;20.68;62.04;97889.53;15326025;19;20010;-73
2023/07/14 23:54:23;;;;;;;3.08;1.08;;;;;;;20.62;61.86;97880.38;15280448;19;20090;-74
2023/07/14 23:59:51;;;;;;;1.00;0.77;;;;;;;20.56;61.86;97876.69;15282158;19;20017;-73
